createdAt,value
2023-03-29T00:02:36.306Z,0.50
2023-03-29T00:06:41.948Z,0.43
2023-03-29T00:10:44.597Z,0.30
2023-03-29T00:14:47.364Z,0.90
2023-03-29T00:18:50.022Z,1.00
2023-03-29T00:22:54.034Z,0.22
2023-03-29T00:26:56.692Z,1.75
2023-03-29T00:31:06.582Z,0.98
2023-03-29T00:35:09.851Z,0.43
2023-03-29T00:39:13.833Z,1.17
2023-03-29T00:43:16.978Z,0.80
2023-03-29T00:47:25.911Z,0.38
2023-03-29T00:51:32.090Z,0.25
2023-03-29T00:55:38.785Z,0.25
2023-03-29T00:59:43.315Z,0.55
2023-03-29T01:03:50.944Z,0.32
2023-03-29T01:07:59.096Z,0.32
2023-03-29T01:12:09.904Z,2.05
2023-03-29T01:16:14.988Z,0.38
2023-03-29T01:20:23.077Z,1.00
2023-03-29T01:24:48.178Z,0.30
2023-03-29T01:28:58.092Z,1.20
2023-03-29T01:33:07.513Z,0.20
2023-03-29T01:37:13.651Z,0.45
2023-03-29T01:41:16.572Z,0.28
2023-03-29T01:45:25.621Z,1.40
2023-03-29T01:49:35.424Z,0.77
2023-03-29T01:53:40.817Z,0.38
2023-03-29T01:57:46.442Z,1.50
2023-03-29T02:01:54.454Z,0.75
2023-03-29T02:05:58.919Z,0.50
2023-03-29T02:10:03.262Z,0.35
2023-03-29T02:14:06.500Z,0.20
2023-03-29T02:18:11.317Z,0.55
2023-03-29T02:22:16.808Z,0.73
2023-03-29T02:26:19.616Z,1.17
2023-03-29T02:30:23.615Z,0.73
2023-03-29T02:34:31.878Z,0.98
2023-03-29T02:38:35.824Z,0.88
2023-03-29T02:42:39.227Z,0.30
2023-03-29T02:46:42.932Z,0.45
2023-03-29T02:50:49.551Z,1.10
2023-03-29T02:54:55.323Z,0.88
2023-03-29T02:58:58.017Z,0.32
2023-03-29T03:03:02.039Z,0.32
2023-03-29T03:07:06.740Z,0.70
2023-03-29T03:11:10.329Z,0.55
2023-03-29T03:15:13.758Z,2.00
2023-03-29T03:19:16.675Z,0.30
2023-03-29T03:23:20.679Z,0.30
2023-03-29T03:27:23.323Z,1.33
2023-03-29T03:31:26.098Z,0.80
2023-03-29T03:35:28.833Z,2.30
2023-03-29T03:39:33.363Z,4.60
2023-03-29T03:43:36.461Z,1.10
2023-03-29T03:47:39.259Z,1.23
2023-03-29T03:51:45.363Z,0.40
2023-03-29T03:55:50.907Z,1.13
2023-03-29T03:59:53.588Z,0.45
2023-03-29T04:03:56.439Z,0.47
2023-03-29T04:07:59.143Z,0.43
2023-03-29T04:12:03.171Z,0.15
2023-03-29T04:16:07.182Z,0.40
2023-03-29T04:20:12.463Z,0.57
2023-03-29T04:24:15.474Z,0.50
2023-03-29T04:28:19.729Z,0.38
2023-03-29T04:32:22.380Z,0.50
2023-03-29T04:36:25.374Z,0.80
2023-03-29T04:40:29.040Z,1.38
2023-03-29T04:44:33.586Z,1.45
2023-03-29T04:48:37.434Z,2.95
2023-03-29T04:52:41.000Z,3.22
2023-03-29T04:56:43.641Z,0.82
2023-03-29T05:00:47.752Z,0.40
2023-03-29T05:04:50.628Z,1.48
2023-03-29T05:08:53.363Z,0.85
2023-03-29T05:12:56.269Z,0.77
2023-03-29T05:17:01.246Z,0.50
2023-03-29T05:21:05.042Z,0.70
2023-03-29T05:25:09.221Z,0.93
2023-03-29T05:29:12.683Z,0.60
2023-03-29T05:33:16.707Z,0.60
2023-03-29T05:37:19.670Z,2.20
2023-03-29T05:41:22.802Z,0.40
2023-03-29T05:45:28.489Z,0.52
2023-03-29T05:49:32.895Z,1.55
2023-03-29T05:53:35.590Z,1.10
2023-03-29T05:57:39.650Z,1.77
2023-03-29T06:01:42.716Z,1.17
2023-03-29T06:05:49.668Z,1.13
2023-03-29T06:09:52.614Z,1.77
2023-03-29T06:13:55.420Z,2.88
2023-03-29T06:17:58.171Z,0.68
2023-03-29T06:22:02.672Z,1.65
2023-03-29T06:26:06.101Z,0.88
2023-03-29T06:30:10.646Z,0.63
2023-03-29T06:34:13.787Z,1.55
2023-03-29T06:38:18.007Z,2.70
2023-03-29T06:42:21.914Z,1.77
2023-03-29T06:46:24.776Z,1.23
2023-03-29T06:50:27.543Z,1.73
2023-03-29T06:54:31.705Z,3.60
2023-03-29T06:58:34.626Z,1.67
2023-03-29T07:02:38.152Z,1.35
2023-03-29T07:06:40.914Z,5.50
2023-03-29T07:10:47.473Z,0.63
2023-03-29T07:14:50.287Z,0.52
2023-03-29T07:18:53.000Z,1.08
2023-03-29T07:22:56.025Z,1.13
2023-03-29T07:27:04.467Z,0.85
2023-03-29T07:31:12.617Z,2.08
2023-03-29T07:35:17.436Z,0.40
2023-03-29T07:39:20.428Z,0.90
2023-03-29T07:43:25.062Z,0.82
2023-03-29T07:47:28.662Z,0.80
2023-03-29T07:51:31.699Z,0.40
2023-03-29T07:55:34.442Z,0.85
2023-03-29T07:59:38.589Z,1.83
2023-03-29T08:03:41.507Z,1.05
2023-03-29T08:07:46.081Z,1.90
2023-03-29T08:11:49.007Z,1.30
2023-03-29T08:15:53.168Z,1.30
2023-03-29T08:19:56.611Z,1.77
2023-03-29T08:23:59.314Z,1.13
2023-03-29T08:28:02.016Z,1.10
2023-03-29T08:32:07.006Z,1.63
2023-03-29T08:36:10.175Z,1.73
2023-03-29T08:40:20.299Z,0.75
2023-03-29T08:44:42.577Z,1.17
2023-03-29T08:48:54.622Z,1.15
2023-03-29T08:53:00.103Z,1.55
2023-03-29T08:57:12.625Z,1.20
2023-03-29T09:01:15.516Z,2.15
2023-03-29T09:05:27.577Z,1.58
2023-03-29T09:09:34.586Z,1.50
2023-03-29T09:13:44.869Z,1.08
2023-03-29T09:18:02.495Z,3.63
2023-03-29T09:22:16.626Z,1.85
2023-03-29T09:26:28.428Z,1.50
2023-03-29T09:30:36.458Z,2.22
2023-03-29T09:34:44.604Z,2.13
2023-03-29T09:38:54.085Z,1.10
2023-03-29T09:42:58.640Z,4.05
2023-03-29T09:47:08.494Z,1.50
2023-03-29T09:51:13.768Z,1.48
2023-03-29T09:55:21.135Z,0.80
2023-03-29T09:59:23.985Z,1.65
2023-03-29T10:03:28.443Z,2.67
2023-03-29T10:07:44.561Z,1.65
2023-03-29T10:11:53.211Z,3.05
2023-03-29T10:16:03.752Z,1.40
2023-03-29T10:20:14.234Z,1.67
2023-03-29T10:24:20.241Z,1.73
2023-03-29T10:28:26.529Z,1.42
2023-03-29T10:32:34.269Z,2.05
2023-03-29T10:36:41.324Z,1.33
2023-03-29T10:40:47.425Z,1.13
2023-03-29T10:44:56.706Z,1.88
2023-03-29T10:49:02.598Z,2.75
2023-03-29T10:53:12.110Z,2.03
2023-03-29T10:57:22.789Z,1.65
2023-03-29T11:01:35.818Z,1.38
2023-03-29T11:05:43.811Z,2.05
2023-03-29T11:09:54.960Z,1.98
2023-03-29T11:14:07.631Z,1.35
2023-03-29T11:18:32.569Z,3.33
2023-03-29T11:22:43.827Z,2.97
2023-03-29T11:26:56.900Z,4.00
2023-03-29T11:31:09.999Z,2.83
2023-03-29T11:35:28.186Z,1.55
2023-03-29T11:39:40.975Z,1.73
2023-03-29T11:43:48.595Z,1.40
2023-03-29T11:47:54.511Z,2.00
2023-03-29T11:52:06.113Z,3.75
2023-03-29T11:56:13.236Z,2.30
2023-03-29T12:00:21.560Z,1.92
2023-03-29T12:04:31.441Z,2.53
2023-03-29T12:08:40.316Z,2.58
2023-03-29T12:12:47.545Z,2.88
2023-03-29T12:16:53.062Z,3.72
2023-03-29T12:21:00.525Z,1.60
2023-03-29T12:25:08.723Z,3.58
2023-03-29T12:29:31.264Z,3.97
2023-03-29T12:33:46.259Z,1.85
2023-03-29T12:38:01.944Z,2.78
2023-03-29T12:42:14.783Z,3.40
2023-03-29T12:46:20.175Z,3.25
2023-03-29T12:50:28.496Z,2.92
2023-03-29T12:54:34.208Z,4.20
2023-03-29T12:58:53.616Z,1.48
2023-03-29T13:03:04.754Z,3.10
2023-03-29T13:07:15.276Z,2.42
2023-03-29T13:11:29.222Z,1.65
2023-03-29T13:15:36.496Z,3.85
2023-03-29T13:19:48.079Z,2.83
2023-03-29T13:24:00.368Z,2.90
2023-03-29T13:28:13.173Z,2.30
2023-03-29T13:32:33.850Z,2.78
2023-03-29T13:36:52.316Z,5.50
2023-03-29T13:41:04.502Z,1.90
2023-03-29T13:45:17.287Z,2.03
2023-03-29T13:49:24.719Z,2.05
2023-03-29T13:53:32.348Z,3.85
2023-03-29T13:57:40.922Z,3.33
2023-03-29T14:01:50.465Z,2.03
2023-03-29T14:05:59.997Z,2.53
2023-03-29T14:10:03.352Z,3.40
2023-03-29T14:14:08.312Z,1.58
2023-03-29T14:18:11.999Z,4.32
2023-03-29T14:22:18.280Z,2.88
2023-03-29T14:30:28.493Z,2.88
2023-03-29T14:34:31.764Z,2.35
2023-03-29T14:38:37.748Z,1.85
2023-03-29T14:42:41.147Z,4.53
2023-03-29T14:46:46.880Z,3.00
2023-03-29T14:50:50.939Z,5.15
2023-03-29T14:54:57.047Z,3.47
2023-03-29T14:59:04.670Z,2.00
2023-03-29T15:03:14.693Z,2.63
2023-03-29T15:07:17.502Z,2.95
2023-03-29T15:11:24.213Z,2.13
2023-03-29T15:15:27.321Z,1.75
2023-03-29T15:19:31.380Z,2.00
2023-03-29T15:23:39.352Z,3.03
2023-03-29T15:27:44.113Z,1.67
2023-03-29T15:31:55.467Z,1.92
2023-03-29T15:35:58.305Z,3.08
2023-03-29T15:40:05.519Z,2.92
2023-03-29T15:44:09.860Z,2.25
2023-03-29T15:48:16.469Z,3.08
2023-03-29T15:52:19.273Z,4.47
2023-03-29T15:56:22.921Z,5.57
2023-03-29T16:00:27.313Z,4.53
2023-03-29T16:04:29.926Z,4.00
2023-03-29T16:08:33.322Z,3.33
2023-03-29T16:12:38.421Z,4.60
2023-03-29T16:16:42.531Z,6.97
2023-03-29T16:20:45.845Z,6.80
2023-03-29T16:24:48.513Z,3.72
2023-03-29T16:28:51.165Z,4.03
2023-03-29T16:32:55.332Z,4.05
2023-03-29T16:36:58.000Z,5.95
2023-03-29T16:41:01.546Z,4.45
2023-03-29T16:45:04.692Z,3.92
2023-03-29T16:49:08.792Z,4.30
2023-03-29T16:53:11.483Z,4.60
2023-03-29T16:57:14.140Z,7.13
2023-03-29T17:01:19.251Z,4.00
2023-03-29T17:05:23.284Z,6.75
2023-03-29T17:09:28.388Z,4.18
2023-03-29T17:13:32.416Z,5.47
2023-03-29T17:17:35.245Z,5.53
2023-03-29T17:21:39.300Z,4.35
2023-03-29T17:25:44.301Z,4.47
2023-03-29T17:29:46.970Z,5.13
2023-03-29T17:33:51.985Z,4.40
2023-03-29T17:37:56.173Z,4.22
2023-03-29T17:41:58.801Z,6.60
2023-03-29T17:46:01.797Z,5.50
2023-03-29T17:50:05.189Z,5.13
2023-03-29T17:54:09.244Z,5.18
2023-03-29T17:58:11.982Z,3.88
2023-03-29T18:02:17.799Z,4.00
2023-03-29T18:06:20.967Z,3.45
2023-03-29T18:10:25.024Z,5.50
2023-03-29T18:14:27.811Z,4.75
2023-03-29T18:18:30.691Z,4.75
2023-03-29T18:22:34.200Z,5.50
2023-03-29T18:26:38.209Z,6.13
2023-03-29T18:30:40.897Z,5.30
2023-03-29T18:34:43.939Z,5.32
2023-03-29T18:38:46.701Z,5.88
2023-03-29T18:42:51.923Z,6.07
2023-03-29T18:46:55.537Z,5.03
2023-03-29T18:50:59.263Z,4.45
2023-03-29T18:55:02.379Z,6.45
2023-03-29T18:59:06.869Z,4.28
2023-03-29T19:03:10.132Z,5.80
2023-03-29T19:07:13.377Z,4.40
2023-03-29T19:11:16.241Z,9.70
2023-03-29T19:15:20.399Z,7.00
2023-03-29T19:19:26.251Z,4.65
2023-03-29T19:23:28.944Z,7.03
2023-03-29T19:27:31.744Z,7.95
2023-03-29T19:31:37.900Z,5.32
2023-03-29T19:35:41.307Z,5.75
2023-03-29T19:39:44.040Z,5.00
2023-03-29T19:43:46.776Z,4.55
2023-03-29T19:47:54.963Z,5.13
2023-03-29T19:51:58.160Z,4.25
2023-03-29T19:56:02.022Z,5.60
2023-03-29T20:00:08.016Z,7.45
2023-03-29T20:04:12.353Z,7.90
2023-03-29T20:08:15.275Z,5.95
2023-03-29T20:12:18.055Z,6.05
2023-03-29T20:16:25.677Z,6.10
2023-03-29T20:20:29.944Z,7.00
2023-03-29T20:24:34.889Z,5.22
2023-03-29T20:28:37.880Z,6.60
2023-03-29T20:32:41.740Z,4.18
2023-03-29T20:36:46.706Z,5.90
2023-03-29T20:40:49.964Z,6.05
2023-03-29T20:44:53.850Z,5.22
2023-03-29T20:48:56.682Z,4.03
2023-03-29T20:53:04.011Z,6.13
2023-03-29T20:57:07.721Z,5.68
2023-03-29T21:01:13.193Z,5.80
2023-03-29T21:05:16.214Z,6.47
2023-03-29T21:09:23.500Z,8.30
2023-03-29T21:13:26.779Z,7.70
2023-03-29T21:17:29.962Z,5.97
2023-03-29T21:21:33.745Z,6.72
2023-03-29T21:25:38.548Z,5.57
2023-03-29T21:29:41.843Z,6.03
2023-03-29T21:33:44.836Z,7.03
2023-03-29T21:37:47.689Z,9.55
2023-03-29T21:41:52.115Z,6.70
2023-03-29T21:45:55.108Z,9.98
2023-03-29T21:49:57.775Z,6.80
2023-03-29T21:54:00.627Z,7.97
2023-03-29T21:58:04.849Z,8.20
2023-03-29T22:02:07.604Z,5.63
2023-03-29T22:06:14.225Z,7.82
2023-03-29T22:10:22.621Z,9.57
2023-03-29T22:14:29.346Z,7.13
2023-03-29T22:18:42.452Z,7.88
2023-03-29T22:22:49.661Z,8.35
2023-03-29T22:26:52.367Z,9.32
2023-03-29T22:30:56.378Z,6.43
2023-03-29T22:34:59.148Z,8.38
2023-03-29T22:39:01.847Z,10.57
2023-03-29T22:43:05.458Z,9.07
2023-03-29T22:47:10.097Z,7.18
2023-03-29T22:51:12.971Z,8.57
2023-03-29T22:55:15.884Z,8.65
2023-03-29T22:59:18.533Z,7.53
2023-03-29T23:03:23.166Z,7.22
2023-03-29T23:07:25.849Z,9.18
2023-03-29T23:11:28.560Z,12.15
2023-03-29T23:15:32.269Z,11.23
2023-03-29T23:19:36.403Z,7.45
2023-03-29T23:23:39.281Z,7.95
2023-03-29T23:27:43.301Z,9.93
2023-03-29T23:31:47.701Z,8.48
2023-03-29T23:35:51.982Z,8.02
2023-03-29T23:39:54.649Z,7.70
2023-03-29T23:43:57.636Z,10.85
2023-03-29T23:48:00.393Z,8.02
2023-03-29T23:52:04.822Z,7.20
2023-03-29T23:56:08.047Z,8.73
